sensor_id;sensor_type;location;lat;lon;timestamp;temperature;humidity
2435;DHT22;1228;51.022;6.764;2023-04-09T00:00:15;7.60;99.90
2435;DHT22;1228;51.022;6.764;2023-04-09T00:02:41;7.60;99.90
2435;DHT22;1228;51.022;6.764;2023-04-09T00:05:07;7.60;99.90
2435;DHT22;1228;51.022;6.764;2023-04-09T00:07:32;7.50;99.90
2435;DHT22;1228;51.022;6.764;2023-04-09T00:09:58;7.40;99.90
2435;DHT22;1228;51.022;6.764;2023-04-09T00:12:24;7.40;99.90
2435;DHT22;1228;51.022;6.764;2023-04-09T00:14:50;7.30;99.90
2435;DHT22;1228;51.022;6.764;2023-04-09T00:17:15;7.30;99.90
2435;DHT22;1228;51.022;6.764;2023-04-09T00:19:41;7.20;99.90
2435;DHT22;1228;51.022;6.764;2023-04-09T00:22:07;7.10;99.90
2435;DHT22;1228;51.022;6.764;2023-04-09T00:24:33;7.10;99.90
2435;DHT22;1228;51.022;6.764;2023-04-09T00:26:58;7.00;99.90
2435;DHT22;1228;51.022;6.764;2023-04-09T00:29:24;6.90;99.90
2435;DHT22;1228;51.022;6.764;2023-04-09T00:31:50;6.90;99.90
2435;DHT22;1228;51.022;6.764;2023-04-09T00:34:15;6.80;99.90
2435;DHT22;1228;51.022;6.764;2023-04-09T00:36:41;6.80;99.90
2435;DHT22;1228;51.022;6.764;2023-04-09T00:39:06;6.70;99.90
2435;DHT22;1228;51.022;6.764;2023-04-09T00:41:32;6.70;99.90
2435;DHT22;1228;51.022;6.764;2023-04-09T00:43:58;6.60;99.90
2435;DHT22;1228;51.022;6.764;2023-04-09T00:46:23;6.60;99.90
2435;DHT22;1228;51.022;6.764;2023-04-09T00:48:49;6.60;99.90
2435;DHT22;1228;51.022;6.764;2023-04-09T00:51:15;6.50;99.90
2435;DHT22;1228;51.022;6.764;2023-04-09T00:53:41;6.50;99.90
2435;DHT22;1228;51.022;6.764;2023-04-09T00:56:09;6.50;99.90
2435;DHT22;1228;51.022;6.764;2023-04-09T00:58:36;6.40;99.90
2435;DHT22;1228;51.022;6.764;2023-04-09T01:01:01;6.40;99.90
2435;DHT22;1228;51.022;6.764;2023-04-09T01:03:27;6.30;99.90
2435;DHT22;1228;51.022;6.764;2023-04-09T01:09:45;6.20;99.90
2435;DHT22;1228;51.022;6.764;2023-04-09T01:12:21;6.10;99.90
2435;DHT22;1228;51.022;6.764;2023-04-09T01:15:04;6.00;99.90
2435;DHT22;1228;51.022;6.764;2023-04-09T01:20:38;5.80;99.90
2435;DHT22;1228;51.022;6.764;2023-04-09T01:29:10;5.70;99.90
2435;DHT22;1228;51.022;6.764;2023-04-09T01:31:38;5.70;99.90
2435;DHT22;1228;51.022;6.764;2023-04-09T01:34:05;5.80;99.90
2435;DHT22;1228;51.022;6.764;2023-04-09T01:36:33;5.80;99.90
2435;DHT22;1228;51.022;6.764;2023-04-09T01:39:00;5.80;99.90
2435;DHT22;1228;51.022;6.764;2023-04-09T01:41:26;5.90;99.90
2435;DHT22;1228;51.022;6.764;2023-04-09T01:43:52;6.00;99.90
2435;DHT22;1228;51.022;6.764;2023-04-09T01:46:21;6.10;99.90
2435;DHT22;1228;51.022;6.764;2023-04-09T01:48:48;6.20;99.90
2435;DHT22;1228;51.022;6.764;2023-04-09T01:51:13;6.30;99.90
2435;DHT22;1228;51.022;6.764;2023-04-09T01:53:40;6.40;99.90
2435;DHT22;1228;51.022;6.764;2023-04-09T01:56:06;6.40;99.90
2435;DHT22;1228;51.022;6.764;2023-04-09T01:58:32;6.40;99.90
2435;DHT22;1228;51.022;6.764;2023-04-09T02:03:54;6.50;99.90
2435;DHT22;1228;51.022;6.764;2023-04-09T02:09:01;6.40;99.90
2435;DHT22;1228;51.022;6.764;2023-04-09T02:11:32;6.40;99.90
2435;DHT22;1228;51.022;6.764;2023-04-09T02:13:59;6.40;99.90
2435;DHT22;1228;51.022;6.764;2023-04-09T02:16:25;6.40;99.90
2435;DHT22;1228;51.022;6.764;2023-04-09T02:18:53;6.40;99.90
2435;DHT22;1228;51.022;6.764;2023-04-09T02:21:19;6.50;99.90
2435;DHT22;1228;51.022;6.764;2023-04-09T02:23:45;6.40;99.90
2435;DHT22;1228;51.022;6.764;2023-04-09T02:26:10;6.40;99.90
2435;DHT22;1228;51.022;6.764;2023-04-09T02:28:36;6.40;99.90
2435;DHT22;1228;51.022;6.764;2023-04-09T02:31:01;6.40;99.90
2435;DHT22;1228;51.022;6.764;2023-04-09T02:33:28;6.40;99.90
2435;DHT22;1228;51.022;6.764;2023-04-09T02:35:53;6.40;99.90
2435;DHT22;1228;51.022;6.764;2023-04-09T02:38:19;6.30;99.90
2435;DHT22;1228;51.022;6.764;2023-04-09T02:40:44;6.20;99.90
2435;DHT22;1228;51.022;6.764;2023-04-09T02:43:10;6.10;99.90
2435;DHT22;1228;51.022;6.764;2023-04-09T02:45:36;6.10;99.90
2435;DHT22;1228;51.022;6.764;2023-04-09T02:48:01;6.00;99.90
2435;DHT22;1228;51.022;6.764;2023-04-09T02:50:27;6.00;99.90
2435;DHT22;1228;51.022;6.764;2023-04-09T02:52:53;5.90;99.90
2435;DHT22;1228;51.022;6.764;2023-04-09T02:55:19;5.80;99.90
2435;DHT22;1228;51.022;6.764;2023-04-09T02:57:45;5.70;99.90
2435;DHT22;1228;51.022;6.764;2023-04-09T03:00:11;5.60;99.90
2435;DHT22;1228;51.022;6.764;2023-04-09T03:02:36;5.60;99.90
2435;DHT22;1228;51.022;6.764;2023-04-09T03:05:02;5.50;99.90
2435;DHT22;1228;51.022;6.764;2023-04-09T03:07:28;5.40;99.90
2435;DHT22;1228;51.022;6.764;2023-04-09T03:09:54;5.30;99.90
2435;DHT22;1228;51.022;6.764;2023-04-09T03:12:19;5.20;99.90
2435;DHT22;1228;51.022;6.764;2023-04-09T03:14:45;5.10;99.90
2435;DHT22;1228;51.022;6.764;2023-04-09T03:17:10;5.10;99.90
2435;DHT22;1228;51.022;6.764;2023-04-09T03:19:36;5.20;99.90
2435;DHT22;1228;51.022;6.764;2023-04-09T03:22:02;5.20;99.90
2435;DHT22;1228;51.022;6.764;2023-04-09T03:24:27;5.10;99.90
2435;DHT22;1228;51.022;6.764;2023-04-09T03:26:53;5.20;99.90
2435;DHT22;1228;51.022;6.764;2023-04-09T03:29:18;5.10;99.90
2435;DHT22;1228;51.022;6.764;2023-04-09T03:31:44;5.10;99.90
2435;DHT22;1228;51.022;6.764;2023-04-09T03:34:09;5.00;99.90
2435;DHT22;1228;51.022;6.764;2023-04-09T03:36:35;5.00;99.90
2435;DHT22;1228;51.022;6.764;2023-04-09T03:39:01;4.90;99.90
2435;DHT22;1228;51.022;6.764;2023-04-09T03:41:26;4.90;99.90
2435;DHT22;1228;51.022;6.764;2023-04-09T03:43:52;4.90;99.90
2435;DHT22;1228;51.022;6.764;2023-04-09T03:46:18;4.90;99.90
2435;DHT22;1228;51.022;6.764;2023-04-09T03:48:43;4.80;99.90
2435;DHT22;1228;51.022;6.764;2023-04-09T03:51:16;4.70;99.90
2435;DHT22;1228;51.022;6.764;2023-04-09T03:53:42;4.60;99.90
2435;DHT22;1228;51.022;6.764;2023-04-09T03:56:08;4.50;99.90
2435;DHT22;1228;51.022;6.764;2023-04-09T03:58:34;4.50;99.90
2435;DHT22;1228;51.022;6.764;2023-04-09T04:01:00;4.40;99.90
2435;DHT22;1228;51.022;6.764;2023-04-09T04:03:26;4.40;99.90
2435;DHT22;1228;51.022;6.764;2023-04-09T04:05:52;4.40;99.90
2435;DHT22;1228;51.022;6.764;2023-04-09T04:08:17;4.40;99.90
2435;DHT22;1228;51.022;6.764;2023-04-09T04:10:43;4.40;99.90
2435;DHT22;1228;51.022;6.764;2023-04-09T04:13:09;4.30;99.90
2435;DHT22;1228;51.022;6.764;2023-04-09T04:15:41;4.30;99.90
2435;DHT22;1228;51.022;6.764;2023-04-09T04:18:07;4.20;99.90
2435;DHT22;1228;51.022;6.764;2023-04-09T04:20:33;4.20;99.90
2435;DHT22;1228;51.022;6.764;2023-04-09T04:22:59;4.10;99.90
2435;DHT22;1228;51.022;6.764;2023-04-09T04:25:24;4.10;99.90
2435;DHT22;1228;51.022;6.764;2023-04-09T04:27:50;4.00;99.90
2435;DHT22;1228;51.022;6.764;2023-04-09T04:30:16;4.00;99.90
2435;DHT22;1228;51.022;6.764;2023-04-09T04:32:41;4.00;99.90
2435;DHT22;1228;51.022;6.764;2023-04-09T04:35:07;4.10;99.90
2435;DHT22;1228;51.022;6.764;2023-04-09T04:37:33;4.00;99.90
2435;DHT22;1228;51.022;6.764;2023-04-09T04:40:02;4.00;99.90
2435;DHT22;1228;51.022;6.764;2023-04-09T04:42:29;4.00;99.90
2435;DHT22;1228;51.022;6.764;2023-04-09T04:44:55;4.00;99.90
2435;DHT22;1228;51.022;6.764;2023-04-09T04:47:20;4.00;99.90
2435;DHT22;1228;51.022;6.764;2023-04-09T04:49:46;4.00;99.90
2435;DHT22;1228;51.022;6.764;2023-04-09T04:52:12;3.90;99.90
2435;DHT22;1228;51.022;6.764;2023-04-09T04:54:37;3.90;99.90
2435;DHT22;1228;51.022;6.764;2023-04-09T04:57:03;3.90;99.90
2435;DHT22;1228;51.022;6.764;2023-04-09T04:59:29;3.90;99.90
2435;DHT22;1228;51.022;6.764;2023-04-09T05:01:54;3.90;99.90
2435;DHT22;1228;51.022;6.764;2023-04-09T05:04:20;3.90;99.90
2435;DHT22;1228;51.022;6.764;2023-04-09T05:06:45;3.90;99.90
2435;DHT22;1228;51.022;6.764;2023-04-09T05:09:11;3.90;99.90
2435;DHT22;1228;51.022;6.764;2023-04-09T05:11:36;3.90;99.90
2435;DHT22;1228;51.022;6.764;2023-04-09T05:14:02;3.90;99.90
2435;DHT22;1228;51.022;6.764;2023-04-09T05:16:29;4.00;99.90
2435;DHT22;1228;51.022;6.764;2023-04-09T05:18:54;4.00;99.90
2435;DHT22;1228;51.022;6.764;2023-04-09T05:21:20;4.00;99.90
2435;DHT22;1228;51.022;6.764;2023-04-09T05:23:46;4.00;99.90
2435;DHT22;1228;51.022;6.764;2023-04-09T05:26:12;4.00;99.90
2435;DHT22;1228;51.022;6.764;2023-04-09T05:28:37;4.10;99.90
2435;DHT22;1228;51.022;6.764;2023-04-09T05:31:03;4.10;99.90
2435;DHT22;1228;51.022;6.764;2023-04-09T05:33:29;4.10;99.90
2435;DHT22;1228;51.022;6.764;2023-04-09T05:35:54;4.20;99.90
2435;DHT22;1228;51.022;6.764;2023-04-09T05:38:20;4.30;99.90
2435;DHT22;1228;51.022;6.764;2023-04-09T05:40:46;4.30;99.90
2435;DHT22;1228;51.022;6.764;2023-04-09T05:43:13;4.40;99.90
2435;DHT22;1228;51.022;6.764;2023-04-09T05:45:38;4.60;99.90
2435;DHT22;1228;51.022;6.764;2023-04-09T05:48:04;4.60;99.90
2435;DHT22;1228;51.022;6.764;2023-04-09T05:50:30;4.80;99.90
2435;DHT22;1228;51.022;6.764;2023-04-09T05:52:56;4.90;99.90
2435;DHT22;1228;51.022;6.764;2023-04-09T05:55:21;5.00;99.90
2435;DHT22;1228;51.022;6.764;2023-04-09T05:57:47;5.10;99.90
2435;DHT22;1228;51.022;6.764;2023-04-09T06:00:13;5.20;99.90
2435;DHT22;1228;51.022;6.764;2023-04-09T06:02:39;5.40;99.90
2435;DHT22;1228;51.022;6.764;2023-04-09T06:05:05;5.40;99.90
2435;DHT22;1228;51.022;6.764;2023-04-09T06:07:31;5.40;99.90
2435;DHT22;1228;51.022;6.764;2023-04-09T06:09:57;5.50;99.90
2435;DHT22;1228;51.022;6.764;2023-04-09T06:12:22;5.60;99.90
2435;DHT22;1228;51.022;6.764;2023-04-09T06:14:48;5.70;99.90
2435;DHT22;1228;51.022;6.764;2023-04-09T06:17:13;5.90;99.90
2435;DHT22;1228;51.022;6.764;2023-04-09T06:19:39;6.10;99.90
2435;DHT22;1228;51.022;6.764;2023-04-09T06:22:05;6.30;99.90
2435;DHT22;1228;51.022;6.764;2023-04-09T06:24:33;6.70;99.90
2435;DHT22;1228;51.022;6.764;2023-04-09T06:26:59;7.10;99.90
2435;DHT22;1228;51.022;6.764;2023-04-09T06:29:24;7.40;99.90
2435;DHT22;1228;51.022;6.764;2023-04-09T06:31:50;7.70;99.90
2435;DHT22;1228;51.022;6.764;2023-04-09T06:34:16;8.10;99.90
2435;DHT22;1228;51.022;6.764;2023-04-09T06:36:41;8.40;99.90
2435;DHT22;1228;51.022;6.764;2023-04-09T06:39:08;8.60;99.90
2435;DHT22;1228;51.022;6.764;2023-04-09T06:41:33;9.00;99.90
2435;DHT22;1228;51.022;6.764;2023-04-09T06:43:59;9.40;99.90
2435;DHT22;1228;51.022;6.764;2023-04-09T06:46:25;9.90;99.90
2435;DHT22;1228;51.022;6.764;2023-04-09T06:48:52;10.30;99.90
2435;DHT22;1228;51.022;6.764;2023-04-09T06:51:17;10.70;99.90
2435;DHT22;1228;51.022;6.764;2023-04-09T06:53:43;11.10;99.90
2435;DHT22;1228;51.022;6.764;2023-04-09T06:56:09;11.40;99.90
2435;DHT22;1228;51.022;6.764;2023-04-09T06:58:34;11.70;99.90
2435;DHT22;1228;51.022;6.764;2023-04-09T07:01:00;11.90;99.90
2435;DHT22;1228;51.022;6.764;2023-04-09T07:03:26;12.00;99.90
2435;DHT22;1228;51.022;6.764;2023-04-09T07:05:53;12.10;99.90
2435;DHT22;1228;51.022;6.764;2023-04-09T07:08:19;12.20;57.40
2435;DHT22;1228;51.022;6.764;2023-04-09T07:10:44;12.20;1.00
2435;DHT22;1228;51.022;6.764;2023-04-09T07:13:11;12.30;1.00
2435;DHT22;1228;51.022;6.764;2023-04-09T07:15:37;12.50;1.00
2435;DHT22;1228;51.022;6.764;2023-04-09T07:18:03;12.80;1.00
2435;DHT22;1228;51.022;6.764;2023-04-09T07:20:28;12.90;1.00
2435;DHT22;1228;51.022;6.764;2023-04-09T07:22:54;12.90;1.00
2435;DHT22;1228;51.022;6.764;2023-04-09T07:25:20;12.90;1.00
2435;DHT22;1228;51.022;6.764;2023-04-09T07:27:46;12.90;1.00
2435;DHT22;1228;51.022;6.764;2023-04-09T07:30:11;12.90;1.00
2435;DHT22;1228;51.022;6.764;2023-04-09T07:32:37;13.00;1.00
2435;DHT22;1228;51.022;6.764;2023-04-09T07:35:05;13.00;1.00
2435;DHT22;1228;51.022;6.764;2023-04-09T07:37:31;13.40;1.00
2435;DHT22;1228;51.022;6.764;2023-04-09T07:39:57;13.60;1.00
2435;DHT22;1228;51.022;6.764;2023-04-09T07:42:22;13.90;1.00
2435;DHT22;1228;51.022;6.764;2023-04-09T07:44:48;14.20;1.00
2435;DHT22;1228;51.022;6.764;2023-04-09T07:47:14;14.50;1.00
2435;DHT22;1228;51.022;6.764;2023-04-09T07:49:40;14.90;1.00
2435;DHT22;1228;51.022;6.764;2023-04-09T07:52:06;15.00;1.00
2435;DHT22;1228;51.022;6.764;2023-04-09T07:54:32;15.00;1.00
2435;DHT22;1228;51.022;6.764;2023-04-09T07:56:58;15.10;1.00
2435;DHT22;1228;51.022;6.764;2023-04-09T07:59:24;15.40;1.00
2435;DHT22;1228;51.022;6.764;2023-04-09T08:01:50;15.40;1.00
2435;DHT22;1228;51.022;6.764;2023-04-09T08:04:16;15.50;1.00
2435;DHT22;1228;51.022;6.764;2023-04-09T08:06:41;15.80;1.00
2435;DHT22;1228;51.022;6.764;2023-04-09T08:09:10;15.80;1.00
2435;DHT22;1228;51.022;6.764;2023-04-09T08:11:36;15.90;1.00
2435;DHT22;1228;51.022;6.764;2023-04-09T08:14:02;16.10;1.00
2435;DHT22;1228;51.022;6.764;2023-04-09T08:16:28;16.20;1.00
2435;DHT22;1228;51.022;6.764;2023-04-09T08:18:55;16.30;1.00
2435;DHT22;1228;51.022;6.764;2023-04-09T08:21:22;16.50;1.00
2435;DHT22;1228;51.022;6.764;2023-04-09T08:23:48;16.60;1.00
2435;DHT22;1228;51.022;6.764;2023-04-09T08:26:14;16.80;1.00
2435;DHT22;1228;51.022;6.764;2023-04-09T08:28:39;16.80;1.00
2435;DHT22;1228;51.022;6.764;2023-04-09T08:31:08;16.90;1.00
2435;DHT22;1228;51.022;6.764;2023-04-09T08:33:33;16.90;1.00
2435;DHT22;1228;51.022;6.764;2023-04-09T08:35:59;17.00;1.00
2435;DHT22;1228;51.022;6.764;2023-04-09T08:38:25;17.10;1.00
2435;DHT22;1228;51.022;6.764;2023-04-09T08:40:51;17.30;1.00
2435;DHT22;1228;51.022;6.764;2023-04-09T08:43:18;17.50;1.00
2435;DHT22;1228;51.022;6.764;2023-04-09T08:45:46;17.70;1.00
2435;DHT22;1228;51.022;6.764;2023-04-09T08:48:12;17.70;1.00
2435;DHT22;1228;51.022;6.764;2023-04-09T08:50:38;17.40;1.00
2435;DHT22;1228;51.022;6.764;2023-04-09T08:53:05;17.30;1.00
2435;DHT22;1228;51.022;6.764;2023-04-09T08:55:32;17.40;1.00
2435;DHT22;1228;51.022;6.764;2023-04-09T08:58:05;17.60;1.00
2435;DHT22;1228;51.022;6.764;2023-04-09T09:00:35;17.90;1.00
2435;DHT22;1228;51.022;6.764;2023-04-09T09:03:09;18.10;1.00
2435;DHT22;1228;51.022;6.764;2023-04-09T09:05:40;18.30;1.00
2435;DHT22;1228;51.022;6.764;2023-04-09T09:08:11;18.50;1.00
2435;DHT22;1228;51.022;6.764;2023-04-09T09:10:44;19.10;1.00
2435;DHT22;1228;51.022;6.764;2023-04-09T09:13:17;19.30;99.90
2435;DHT22;1228;51.022;6.764;2023-04-09T09:15:43;19.30;99.90
2435;DHT22;1228;51.022;6.764;2023-04-09T09:18:08;19.40;99.90
2435;DHT22;1228;51.022;6.764;2023-04-09T09:20:34;19.40;99.90
2435;DHT22;1228;51.022;6.764;2023-04-09T09:23:01;19.20;99.90
2435;DHT22;1228;51.022;6.764;2023-04-09T09:25:27;19.10;99.90
2435;DHT22;1228;51.022;6.764;2023-04-09T09:27:53;18.90;99.90
2435;DHT22;1228;51.022;6.764;2023-04-09T09:30:24;18.90;99.90
2435;DHT22;1228;51.022;6.764;2023-04-09T09:33:10;18.80;99.90
2435;DHT22;1228;51.022;6.764;2023-04-09T09:35:46;18.90;99.90
2435;DHT22;1228;51.022;6.764;2023-04-09T09:38:13;19.10;99.90
2435;DHT22;1228;51.022;6.764;2023-04-09T09:40:40;19.30;99.90
2435;DHT22;1228;51.022;6.764;2023-04-09T09:43:06;19.00;99.90
2435;DHT22;1228;51.022;6.764;2023-04-09T09:45:32;18.80;99.90
2435;DHT22;1228;51.022;6.764;2023-04-09T09:47:58;18.80;99.90
2435;DHT22;1228;51.022;6.764;2023-04-09T09:50:24;18.80;99.90
2435;DHT22;1228;51.022;6.764;2023-04-09T09:52:55;18.80;99.90
2435;DHT22;1228;51.022;6.764;2023-04-09T09:55:22;18.70;99.90
2435;DHT22;1228;51.022;6.764;2023-04-09T09:57:49;18.80;99.90
2435;DHT22;1228;51.022;6.764;2023-04-09T10:00:18;18.80;99.90
2435;DHT22;1228;51.022;6.764;2023-04-09T10:03:25;18.60;99.90
2435;DHT22;1228;51.022;6.764;2023-04-09T10:05:49;18.70;99.90
2435;DHT22;1228;51.022;6.764;2023-04-09T10:08:15;19.00;99.90
2435;DHT22;1228;51.022;6.764;2023-04-09T10:10:41;19.10;99.90
2435;DHT22;1228;51.022;6.764;2023-04-09T10:13:19;19.40;99.90
2435;DHT22;1228;51.022;6.764;2023-04-09T10:15:46;19.20;99.90
2435;DHT22;1228;51.022;6.764;2023-04-09T10:18:13;19.10;99.90
2435;DHT22;1228;51.022;6.764;2023-04-09T10:20:44;19.00;99.90
2435;DHT22;1228;51.022;6.764;2023-04-09T10:23:21;19.20;99.90
2435;DHT22;1228;51.022;6.764;2023-04-09T10:25:48;19.30;99.90
2435;DHT22;1228;51.022;6.764;2023-04-09T10:28:16;19.30;99.90
2435;DHT22;1228;51.022;6.764;2023-04-09T10:30:42;19.30;99.90
2435;DHT22;1228;51.022;6.764;2023-04-09T10:33:13;19.30;99.90
2435;DHT22;1228;51.022;6.764;2023-04-09T10:35:39;19.40;99.90
2435;DHT22;1228;51.022;6.764;2023-04-09T10:38:08;19.20;99.90
2435;DHT22;1228;51.022;6.764;2023-04-09T10:40:47;19.20;99.90
2435;DHT22;1228;51.022;6.764;2023-04-09T10:43:20;19.20;99.90
2435;DHT22;1228;51.022;6.764;2023-04-09T10:45:47;19.50;99.90
2435;DHT22;1228;51.022;6.764;2023-04-09T10:48:18;19.70;99.90
2435;DHT22;1228;51.022;6.764;2023-04-09T10:50:44;19.70;99.90
2435;DHT22;1228;51.022;6.764;2023-04-09T10:53:24;19.80;99.90
2435;DHT22;1228;51.022;6.764;2023-04-09T10:55:51;20.10;99.90
2435;DHT22;1228;51.022;6.764;2023-04-09T10:58:18;20.00;99.90
2435;DHT22;1228;51.022;6.764;2023-04-09T11:00:45;19.80;99.90
2435;DHT22;1228;51.022;6.764;2023-04-09T11:03:27;19.50;99.90
2435;DHT22;1228;51.022;6.764;2023-04-09T11:08:22;19.50;99.90
2435;DHT22;1228;51.022;6.764;2023-04-09T11:10:48;19.50;99.90
2435;DHT22;1228;51.022;6.764;2023-04-09T11:13:15;19.30;99.90
2435;DHT22;1228;51.022;6.764;2023-04-09T11:15:42;19.30;99.90
2435;DHT22;1228;51.022;6.764;2023-04-09T11:18:07;19.00;99.90
2435;DHT22;1228;51.022;6.764;2023-04-09T11:20:39;18.60;99.90
2435;DHT22;1228;51.022;6.764;2023-04-09T11:23:04;18.50;99.90
2435;DHT22;1228;51.022;6.764;2023-04-09T11:25:31;18.50;99.90
2435;DHT22;1228;51.022;6.764;2023-04-09T11:27:58;18.80;99.90
2435;DHT22;1228;51.022;6.764;2023-04-09T11:30:24;18.90;99.90
2435;DHT22;1228;51.022;6.764;2023-04-09T11:32:50;18.60;99.90
2435;DHT22;1228;51.022;6.764;2023-04-09T11:35:21;18.30;99.90
2435;DHT22;1228;51.022;6.764;2023-04-09T11:37:47;17.80;99.90
2435;DHT22;1228;51.022;6.764;2023-04-09T11:40:14;17.60;99.90
2435;DHT22;1228;51.022;6.764;2023-04-09T11:42:42;18.00;99.90
2435;DHT22;1228;51.022;6.764;2023-04-09T11:45:11;18.40;99.90
2435;DHT22;1228;51.022;6.764;2023-04-09T11:47:39;18.50;99.90
2435;DHT22;1228;51.022;6.764;2023-04-09T11:50:07;19.00;99.90
2435;DHT22;1228;51.022;6.764;2023-04-09T11:52:33;19.30;99.90
2435;DHT22;1228;51.022;6.764;2023-04-09T11:55:04;19.50;99.90
2435;DHT22;1228;51.022;6.764;2023-04-09T12:00:14;19.80;99.90
2435;DHT22;1228;51.022;6.764;2023-04-09T12:02:43;19.70;99.90
2435;DHT22;1228;51.022;6.764;2023-04-09T12:05:11;19.40;99.90
2435;DHT22;1228;51.022;6.764;2023-04-09T12:07:38;19.10;99.90
2435;DHT22;1228;51.022;6.764;2023-04-09T12:10:05;19.10;99.90
2435;DHT22;1228;51.022;6.764;2023-04-09T12:12:39;19.40;99.90
2435;DHT22;1228;51.022;6.764;2023-04-09T12:15:32;19.60;99.90
2435;DHT22;1228;51.022;6.764;2023-04-09T12:17:58;19.50;99.90
2435;DHT22;1228;51.022;6.764;2023-04-09T12:20:40;19.40;99.90
2435;DHT22;1228;51.022;6.764;2023-04-09T12:23:08;19.40;99.90
2435;DHT22;1228;51.022;6.764;2023-04-09T12:25:44;19.50;99.90
2435;DHT22;1228;51.022;6.764;2023-04-09T12:28:14;19.30;99.90
2435;DHT22;1228;51.022;6.764;2023-04-09T12:30:43;19.50;99.90
2435;DHT22;1228;51.022;6.764;2023-04-09T12:33:09;19.50;99.90
2435;DHT22;1228;51.022;6.764;2023-04-09T12:35:34;19.50;99.90
2435;DHT22;1228;51.022;6.764;2023-04-09T12:38:02;19.50;99.90
2435;DHT22;1228;51.022;6.764;2023-04-09T12:40:29;19.70;99.90
2435;DHT22;1228;51.022;6.764;2023-04-09T12:42:55;19.60;99.90
2435;DHT22;1228;51.022;6.764;2023-04-09T12:45:21;19.50;99.90
2435;DHT22;1228;51.022;6.764;2023-04-09T12:47:47;19.30;99.90
2435;DHT22;1228;51.022;6.764;2023-04-09T12:50:13;19.30;99.90
2435;DHT22;1228;51.022;6.764;2023-04-09T12:52:40;19.50;99.90
2435;DHT22;1228;51.022;6.764;2023-04-09T12:55:07;19.90;99.90
2435;DHT22;1228;51.022;6.764;2023-04-09T12:57:33;20.00;99.90
2435;DHT22;1228;51.022;6.764;2023-04-09T12:59:59;20.20;99.90
2435;DHT22;1228;51.022;6.764;2023-04-09T13:02:25;20.30;99.90
2435;DHT22;1228;51.022;6.764;2023-04-09T13:04:50;20.50;99.90
2435;DHT22;1228;51.022;6.764;2023-04-09T13:07:17;20.60;99.90
2435;DHT22;1228;51.022;6.764;2023-04-09T13:09:47;20.70;99.90
2435;DHT22;1228;51.022;6.764;2023-04-09T13:12:15;21.00;99.90
2435;DHT22;1228;51.022;6.764;2023-04-09T13:14:42;20.90;99.90
2435;DHT22;1228;51.022;6.764;2023-04-09T13:17:08;20.90;99.90
2435;DHT22;1228;51.022;6.764;2023-04-09T13:19:34;20.90;99.90
2435;DHT22;1228;51.022;6.764;2023-04-09T13:21:59;20.40;99.90
2435;DHT22;1228;51.022;6.764;2023-04-09T13:24:25;20.10;99.90
2435;DHT22;1228;51.022;6.764;2023-04-09T13:26:51;20.00;99.90
2435;DHT22;1228;51.022;6.764;2023-04-09T13:29:17;19.70;99.90
2435;DHT22;1228;51.022;6.764;2023-04-09T13:31:43;19.40;99.90
2435;DHT22;1228;51.022;6.764;2023-04-09T13:34:09;19.40;99.90
2435;DHT22;1228;51.022;6.764;2023-04-09T13:36:35;19.60;99.90
2435;DHT22;1228;51.022;6.764;2023-04-09T13:39:00;20.00;99.90
2435;DHT22;1228;51.022;6.764;2023-04-09T13:41:32;20.00;99.90
2435;DHT22;1228;51.022;6.764;2023-04-09T13:43:58;19.60;99.90
2435;DHT22;1228;51.022;6.764;2023-04-09T13:46:23;19.50;99.90
2435;DHT22;1228;51.022;6.764;2023-04-09T13:48:49;19.60;99.90
2435;DHT22;1228;51.022;6.764;2023-04-09T13:51:15;19.90;99.90
2435;DHT22;1228;51.022;6.764;2023-04-09T13:53:41;19.80;99.90
2435;DHT22;1228;51.022;6.764;2023-04-09T13:56:06;19.50;99.90
2435;DHT22;1228;51.022;6.764;2023-04-09T13:58:32;19.20;99.90
2435;DHT22;1228;51.022;6.764;2023-04-09T14:00:57;19.10;99.90
2435;DHT22;1228;51.022;6.764;2023-04-09T14:03:23;18.80;99.90
2435;DHT22;1228;51.022;6.764;2023-04-09T14:05:48;18.80;99.90
2435;DHT22;1228;51.022;6.764;2023-04-09T14:08:15;18.90;99.90
2435;DHT22;1228;51.022;6.764;2023-04-09T14:10:40;19.10;99.90
2435;DHT22;1228;51.022;6.764;2023-04-09T14:13:06;19.60;99.90
2435;DHT22;1228;51.022;6.764;2023-04-09T14:15:35;19.90;99.90
2435;DHT22;1228;51.022;6.764;2023-04-09T14:18:01;20.00;99.90
2435;DHT22;1228;51.022;6.764;2023-04-09T14:20:27;20.00;99.90
2435;DHT22;1228;51.022;6.764;2023-04-09T14:22:52;20.20;99.90
2435;DHT22;1228;51.022;6.764;2023-04-09T14:25:18;20.00;99.90
2435;DHT22;1228;51.022;6.764;2023-04-09T14:27:44;19.90;99.90
2435;DHT22;1228;51.022;6.764;2023-04-09T14:30:10;20.00;99.90
2435;DHT22;1228;51.022;6.764;2023-04-09T14:32:36;20.10;99.90
2435;DHT22;1228;51.022;6.764;2023-04-09T14:35:02;20.40;99.90
2435;DHT22;1228;51.022;6.764;2023-04-09T14:37:28;20.60;99.90
2435;DHT22;1228;51.022;6.764;2023-04-09T14:39:53;20.40;99.90
2435;DHT22;1228;51.022;6.764;2023-04-09T14:42:19;20.40;99.90
2435;DHT22;1228;51.022;6.764;2023-04-09T14:44:45;20.20;99.90
2435;DHT22;1228;51.022;6.764;2023-04-09T14:47:10;19.80;99.90
2435;DHT22;1228;51.022;6.764;2023-04-09T14:49:36;19.70;99.90
2435;DHT22;1228;51.022;6.764;2023-04-09T14:52:02;19.60;99.90
2435;DHT22;1228;51.022;6.764;2023-04-09T14:54:27;19.50;99.90
2435;DHT22;1228;51.022;6.764;2023-04-09T14:56:54;19.70;99.90
2435;DHT22;1228;51.022;6.764;2023-04-09T14:59:22;19.80;99.90
2435;DHT22;1228;51.022;6.764;2023-04-09T15:01:48;19.70;99.90
2435;DHT22;1228;51.022;6.764;2023-04-09T15:04:13;19.50;99.90
2435;DHT22;1228;51.022;6.764;2023-04-09T15:06:39;19.50;99.90
2435;DHT22;1228;51.022;6.764;2023-04-09T15:09:05;19.30;99.90
2435;DHT22;1228;51.022;6.764;2023-04-09T15:11:31;19.10;99.90
2435;DHT22;1228;51.022;6.764;2023-04-09T15:13:56;19.20;99.90
2435;DHT22;1228;51.022;6.764;2023-04-09T15:16:26;19.30;99.90
2435;DHT22;1228;51.022;6.764;2023-04-09T15:18:53;19.20;99.90
2435;DHT22;1228;51.022;6.764;2023-04-09T15:21:20;18.70;99.90
2435;DHT22;1228;51.022;6.764;2023-04-09T15:23:48;18.50;99.90
2435;DHT22;1228;51.022;6.764;2023-04-09T15:26:14;18.50;99.90
2435;DHT22;1228;51.022;6.764;2023-04-09T15:28:40;18.60;99.90
2435;DHT22;1228;51.022;6.764;2023-04-09T15:31:06;18.70;99.90
2435;DHT22;1228;51.022;6.764;2023-04-09T15:33:31;18.70;99.90
2435;DHT22;1228;51.022;6.764;2023-04-09T15:35:58;18.80;99.90
2435;DHT22;1228;51.022;6.764;2023-04-09T15:38:23;18.90;99.90
2435;DHT22;1228;51.022;6.764;2023-04-09T15:40:50;19.10;99.90
2435;DHT22;1228;51.022;6.764;2023-04-09T15:43:16;19.50;99.90
2435;DHT22;1228;51.022;6.764;2023-04-09T15:45:43;19.80;99.90
2435;DHT22;1228;51.022;6.764;2023-04-09T15:48:09;19.80;99.90
2435;DHT22;1228;51.022;6.764;2023-04-09T15:50:35;19.70;99.90
2435;DHT22;1228;51.022;6.764;2023-04-09T15:53:01;19.70;99.90
2435;DHT22;1228;51.022;6.764;2023-04-09T15:55:26;19.70;99.90
2435;DHT22;1228;51.022;6.764;2023-04-09T15:57:52;19.80;99.90
2435;DHT22;1228;51.022;6.764;2023-04-09T16:00:19;19.90;99.90
2435;DHT22;1228;51.022;6.764;2023-04-09T16:02:45;19.60;99.90
2435;DHT22;1228;51.022;6.764;2023-04-09T16:05:10;19.30;99.90
2435;DHT22;1228;51.022;6.764;2023-04-09T16:07:36;19.40;99.90
2435;DHT22;1228;51.022;6.764;2023-04-09T16:10:04;19.60;99.90
2435;DHT22;1228;51.022;6.764;2023-04-09T16:12:30;19.90;99.90
2435;DHT22;1228;51.022;6.764;2023-04-09T16:14:55;19.80;99.90
2435;DHT22;1228;51.022;6.764;2023-04-09T16:17:21;19.70;99.90
2435;DHT22;1228;51.022;6.764;2023-04-09T16:19:46;19.70;99.90
2435;DHT22;1228;51.022;6.764;2023-04-09T16:22:12;19.50;99.90
2435;DHT22;1228;51.022;6.764;2023-04-09T16:24:38;19.40;99.90
2435;DHT22;1228;51.022;6.764;2023-04-09T16:27:03;19.40;99.90
2435;DHT22;1228;51.022;6.764;2023-04-09T16:29:29;19.50;99.90